Time;durP1;ratioP1;P1;durP2;ratioP2;P2;SDS_P1;SDS_P2;PMS_P1;PMS_P2;Temp;Humidity;BMP_temperature;BMP_pressure;BME280_temperature;BME280_humidity;BME280_pressure;Samples;Min_cycle;Max_cycle;Signal;HPM_P1;HPM_P2
2023/01/12 00:02:06;;;;;;;21.65;2.90;;;;;;;;;;4936324;28;92714;-67
2023/01/12 00:04:33;;;;;;;33.92;3.20;;;;;;;;;;4936094;28;92859;-68
2023/01/12 00:07:00;;;;;;;16.25;3.10;;;;;;;;;;4936060;28;94594;-68
2023/01/12 00:09:26;;;;;;;17.55;3.22;;;;;;;;;;4935028;28;92622;-68
2023/01/12 00:11:53;;;;;;;21.50;3.33;;;;;;;;;;4935820;28;93147;-67
2023/01/12 00:14:19;;;;;;;18.95;3.53;;;;;;;;;;4939515;28;93419;-67
2023/01/12 00:16:45;;;;;;;18.23;3.88;;;;;;;;;;4935834;28;93205;-67
2023/01/12 00:19:14;;;;;;;23.15;3.38;;;;;;;;;;4934472;28;97008;-67
2023/01/12 00:21:48;;;;;;;15.90;3.22;;;;;;;;;;4936030;28;92702;-67
2023/01/12 00:24:16;;;;;;;18.10;3.25;;;;;;;;;;4934354;28;94596;-68
2023/01/12 00:26:42;;;;;;;25.73;3.50;;;;;;;;;;4936795;28;92483;-67
2023/01/12 00:29:09;;;;;;;21.77;3.08;;;;;;;;;;4935317;28;92513;-67
2023/01/12 00:31:35;;;;;;;29.23;3.80;;;;;;;;;;4936190;28;93269;-67
2023/01/12 00:34:01;;;;;;;19.85;3.55;;;;;;;;;;4935837;28;93509;-67
2023/01/12 00:36:27;;;;;;;28.60;4.20;;;;;;;;;;4939614;28;92125;-67
2023/01/12 00:38:54;;;;;;;21.13;4.15;;;;;;;;;;4934961;28;93440;-67
2023/01/12 00:46:50;;;;;;;25.27;3.97;;;;;;;;;;4931299;28;93426;-67
2023/01/12 00:49:16;;;;;;;24.23;4.43;;;;;;;;;;4936296;28;92422;-67
2023/01/12 00:51:43;;;;;;;38.97;5.40;;;;;;;;;;4933546;28;94260;-67
2023/01/12 00:54:09;;;;;;;36.92;5.35;;;;;;;;;;4939997;28;93623;-67
2023/01/12 00:56:37;;;;;;;41.10;4.90;;;;;;;;;;4938199;28;92763;-68
2023/01/12 00:59:03;;;;;;;28.80;5.28;;;;;;;;;;4949734;28;93415;-67
2023/01/12 01:01:31;;;;;;;41.40;5.53;;;;;;;;;;4936990;28;93188;-67
2023/01/12 01:03:58;;;;;;;25.80;5.32;;;;;;;;;;4933417;28;92676;-67
2023/01/12 01:06:24;;;;;;;34.50;5.43;;;;;;;;;;4933894;28;93485;-67
2023/01/12 01:08:50;;;;;;;30.25;4.53;;;;;;;;;;4934198;28;94993;-67
2023/01/12 01:11:17;;;;;;;30.42;4.80;;;;;;;;;;4934866;28;97290;-67
2023/01/12 01:13:44;;;;;;;32.83;5.13;;;;;;;;;;4935278;28;94255;-67
2023/01/12 01:16:11;;;;;;;30.15;5.30;;;;;;;;;;4935977;28;94015;-67
2023/01/12 01:18:38;;;;;;;34.30;5.28;;;;;;;;;;4938529;28;93491;-68
2023/01/12 01:21:06;;;;;;;27.30;6.32;;;;;;;;;;4930570;28;92846;-68
2023/01/12 01:23:34;;;;;;;38.97;5.75;;;;;;;;;;4934976;28;93245;-67
2023/01/12 01:26:01;;;;;;;33.00;5.57;;;;;;;;;;4929945;28;94023;-67
2023/01/12 01:28:27;;;;;;;25.65;4.40;;;;;;;;;;4933451;28;92962;-67
2023/01/12 01:31:00;;;;;;;26.00;4.68;;;;;;;;;;4933639;28;96699;-67
2023/01/12 01:33:27;;;;;;;30.20;5.72;;;;;;;;;;4932931;28;95788;-67
2023/01/12 01:35:54;;;;;;;28.52;5.60;;;;;;;;;;4929531;28;92557;-67
2023/01/12 01:38:21;;;;;;;31.23;5.57;;;;;;;;;;4934955;28;93804;-67
2023/01/12 01:40:47;;;;;;;29.58;5.88;;;;;;;;;;4940827;28;93426;-67
2023/01/12 01:43:14;;;;;;;30.73;4.80;;;;;;;;;;4935591;28;93066;-67
2023/01/12 01:45:42;;;;;;;30.75;4.82;;;;;;;;;;4933810;28;93722;-67
2023/01/12 01:48:09;;;;;;;35.33;5.10;;;;;;;;;;4947260;28;92828;-67
2023/01/12 01:50:39;;;;;;;32.55;5.22;;;;;;;;;;4945194;28;93464;-68
2023/01/12 01:53:08;;;;;;;31.65;5.20;;;;;;;;;;4932891;28;94472;-68
2023/01/12 01:55:49;;;;;;;28.55;5.25;;;;;;;;;;4935877;28;92974;-67
2023/01/12 01:58:23;;;;;;;34.67;5.78;;;;;;;;;;4930493;28;95177;-67
2023/01/12 02:00:51;;;;;;;31.90;5.63;;;;;;;;;;4924954;28;93318;-67
2023/01/12 02:03:17;;;;;;;21.02;4.57;;;;;;;;;;4936896;28;92487;-67
2023/01/12 02:05:45;;;;;;;29.00;4.57;;;;;;;;;;4935495;28;93674;-67
2023/01/12 02:08:15;;;;;;;30.67;4.80;;;;;;;;;;4935280;28;92914;-67
2023/01/12 02:10:42;;;;;;;25.87;4.43;;;;;;;;;;4934318;28;93159;-67
2023/01/12 02:18:44;;;;;;;;;;;;;;;;;;4935266;28;92568;-67
2023/01/12 02:21:13;;;;;;;19.40;3.17;;;;;;;;;;4934540;28;123897;-67
2023/01/12 02:23:54;;;;;;;15.60;3.08;;;;;;;;;;4927464;28;94889;-67
2023/01/12 02:26:36;;;;;;;27.33;3.95;;;;;;;;;;4934955;28;96612;-67
2023/01/12 02:29:05;;;;;;;18.33;2.80;;;;;;;;;;4933269;28;92624;-67
2023/01/12 02:31:38;;;;;;;13.60;2.63;;;;;;;;;;4922068;28;93050;-67
2023/01/12 02:34:26;;;;;;;13.35;2.65;;;;;;;;;;4932628;28;93540;-67
2023/01/12 02:37:04;;;;;;;9.48;1.92;;;;;;;;;;4926602;28;92417;-67
2023/01/12 02:39:49;;;;;;;10.75;2.00;;;;;;;;;;4934544;28;93150;-67
2023/01/12 02:42:41;;;;;;;15.25;2.42;;;;;;;;;;4934657;28;91735;-67
2023/01/12 02:45:26;;;;;;;9.32;2.10;;;;;;;;;;4933197;28;92437;-67
2023/01/12 02:47:58;;;;;;;9.35;2.50;;;;;;;;;;4925263;28;93314;-68
2023/01/12 02:50:27;;;;;;;11.15;1.98;;;;;;;;;;4934567;28;95853;-69
2023/01/12 02:52:58;;;;;;;11.18;1.98;;;;;;;;;;4932036;28;95917;-68
2023/01/12 02:55:25;;;;;;;8.60;2.33;;;;;;;;;;4935737;28;93614;-68
2023/01/12 02:57:53;;;;;;;13.95;2.47;;;;;;;;;;4932761;28;92767;-68
2023/01/12 03:00:20;;;;;;;14.18;2.50;;;;;;;;;;4930602;28;93208;-67
2023/01/12 03:02:46;;;;;;;10.32;1.88;;;;;;;;;;4934118;28;93485;-68
2023/01/12 03:05:13;;;;;;;16.33;2.28;;;;;;;;;;4932448;28;92594;-67
2023/01/12 03:07:42;;;;;;;6.95;1.83;;;;;;;;;;4932464;28;94192;-67
2023/01/12 03:10:19;;;;;;;12.87;2.40;;;;;;;;;;4933701;28;93570;-68
2023/01/12 03:12:47;;;;;;;9.13;2.30;;;;;;;;;;4936452;28;92535;-68
2023/01/12 03:15:15;;;;;;;12.20;2.42;;;;;;;;;;4932070;28;95926;-68
2023/01/12 03:17:51;;;;;;;11.65;2.17;;;;;;;;;;4933899;28;92787;-68
2023/01/12 03:20:27;;;;;;;8.88;2.30;;;;;;;;;;4933649;28;93183;-68
2023/01/12 03:22:56;;;;;;;20.15;3.45;;;;;;;;;;4933389;28;93661;-68
2023/01/12 03:25:23;;;;;;;15.65;2.92;;;;;;;;;;4934507;28;92768;-67
2023/01/12 03:27:51;;;;;;;19.67;3.95;;;;;;;;;;4934187;28;93093;-68
2023/01/12 03:30:19;;;;;;;17.48;3.20;;;;;;;;;;4932154;28;93504;-67
2023/01/12 03:32:46;;;;;;;22.77;3.25;;;;;;;;;;4936569;28;91897;-68
2023/01/12 03:35:12;;;;;;;9.43;3.45;;;;;;;;;;4934906;28;93436;-67
2023/01/12 03:37:42;;;;;;;15.45;3.42;;;;;;;;;;4935634;28;92623;-67
2023/01/12 03:40:10;;;;;;;13.75;4.15;;;;;;;;;;4935647;28;95309;-68
2023/01/12 03:42:46;;;;;;;28.02;3.85;;;;;;;;;;4936414;28;93871;-68
2023/01/12 03:45:15;;;;;;;14.05;3.17;;;;;;;;;;4937169;28;92550;-68
2023/01/12 03:47:42;;;;;;;13.52;3.33;;;;;;;;;;4936487;28;93732;-67
2023/01/12 03:50:17;;;;;;;14.23;3.60;;;;;;;;;;4934948;28;94352;-68
2023/01/12 03:52:44;;;;;;;14.07;3.13;;;;;;;;;;4919744;28;92475;-68
2023/01/12 03:55:12;;;;;;;16.95;3.10;;;;;;;;;;4936677;28;93220;-67
2023/01/12 03:57:39;;;;;;;16.83;2.85;;;;;;;;;;4936071;28;93540;-68
2023/01/12 04:00:08;;;;;;;11.00;2.50;;;;;;;;;;4936058;28;92496;-67
2023/01/12 04:02:34;;;;;;;16.52;2.70;;;;;;;;;;4931300;28;94212;-67
2023/01/12 04:05:00;;;;;;;10.52;2.28;;;;;;;;;;4937630;28;96515;-69
2023/01/12 04:07:27;;;;;;;13.77;2.60;;;;;;;;;;4937505;28;95641;-68
2023/01/12 04:09:53;;;;;;;9.48;2.00;;;;;;;;;;4936594;28;94421;-68
2023/01/12 04:12:19;;;;;;;10.55;2.17;;;;;;;;;;4936525;28;92855;-68
2023/01/12 04:14:47;;;;;;;11.00;2.05;;;;;;;;;;4936497;28;93353;-68
2023/01/12 04:17:14;;;;;;;12.10;2.35;;;;;;;;;;4939339;28;93920;-68
2023/01/12 04:19:40;;;;;;;12.90;2.08;;;;;;;;;;4936254;28;93757;-67
2023/01/12 04:24:52;;;;;;;7.10;1.58;;;;;;;;;;4927718;28;92516;-67
2023/01/12 04:27:18;;;;;;;7.35;1.80;;;;;;;;;;4937047;28;93270;-68
2023/01/12 04:29:45;;;;;;;12.40;2.30;;;;;;;;;;4934370;28;96167;-67
2023/01/12 04:32:11;;;;;;;14.35;2.00;;;;;;;;;;4935460;28;92802;-68
2023/01/12 04:34:40;;;;;;;11.18;2.22;;;;;;;;;;4935439;28;93262;-67
2023/01/12 04:37:07;;;;;;;13.65;2.00;;;;;;;;;;4934420;28;93461;-68
2023/01/12 04:39:33;;;;;;;12.35;2.22;;;;;;;;;;4947157;28;92817;-67
2023/01/12 04:41:59;;;;;;;9.73;1.77;;;;;;;;;;4943122;28;93979;-67
2023/01/12 04:44:25;;;;;;;15.05;2.10;;;;;;;;;;4948008;28;92546;-68
2023/01/12 04:46:52;;;;;;;9.25;2.80;;;;;;;;;;4946010;28;93149;-68
2023/01/12 04:49:18;;;;;;;15.88;2.10;;;;;;;;;;4937265;28;93446;-68
2023/01/12 04:51:45;;;;;;;22.25;2.10;;;;;;;;;;4927983;28;92498;-67
2023/01/12 04:54:11;;;;;;;12.38;2.08;;;;;;;;;;4936432;28;94882;-67
2023/01/12 04:56:37;;;;;;;16.13;2.75;;;;;;;;;;4939892;28;96113;-68
2023/01/12 04:59:06;;;;;;;9.30;1.92;;;;;;;;;;4934989;28;92432;-67
2023/01/12 05:01:32;;;;;;;12.63;2.72;;;;;;;;;;4946197;28;92946;-67
2023/01/12 05:04:01;;;;;;;14.35;2.42;;;;;;;;;;4939064;28;95847;-67
2023/01/12 05:06:28;;;;;;;8.98;2.08;;;;;;;;;;4945750;28;93378;-67
2023/01/12 05:11:59;;;;;;;13.52;2.45;;;;;;;;;;4849885;28;91950;-67
2023/01/12 05:14:26;;;;;;;9.77;1.90;;;;;;;;;;4855619;28;92603;-68
2023/01/12 05:16:52;;;;;;;7.53;1.98;;;;;;;;;;4855175;28;93908;-67
2023/01/12 05:19:18;;;;;;;8.50;1.70;;;;;;;;;;4854332;28;95594;-67
2023/01/12 05:21:45;;;;;;;11.40;2.33;;;;;;;;;;4858950;28;96190;-68
2023/01/12 05:24:11;;;;;;;9.98;2.72;;;;;;;;;;4856059;28;92662;-67
2023/01/12 05:26:37;;;;;;;18.40;2.22;;;;;;;;;;4856846;29;93281;-67
2023/01/12 05:29:04;;;;;;;13.85;2.42;;;;;;;;;;4855577;28;95004;-67
2023/01/12 05:31:32;;;;;;;7.47;2.20;;;;;;;;;;4854966;29;92624;-67
2023/01/12 05:33:58;;;;;;;5.72;1.88;;;;;;;;;;4855417;28;94507;-67
2023/01/12 05:36:24;;;;;;;10.40;1.73;;;;;;;;;;4854389;28;93615;-68
2023/01/12 05:38:51;;;;;;;10.38;1.88;;;;;;;;;;4856776;28;92477;-67
2023/01/12 05:41:18;;;;;;;9.38;2.03;;;;;;;;;;4856418;29;93243;-67
2023/01/12 05:43:50;;;;;;;6.55;1.48;;;;;;;;;;4925733;28;95871;-67
2023/01/12 05:46:23;;;;;;;6.68;1.75;;;;;;;;;;4939554;28;95708;-67
2023/01/12 05:48:50;;;;;;;6.25;2.35;;;;;;;;;;4935291;28;93572;-67
2023/01/12 05:51:17;;;;;;;9.18;1.55;;;;;;;;;;4934410;28;92535;-67
2023/01/12 05:53:43;;;;;;;8.27;1.90;;;;;;;;;;4933176;28;93735;-67
2023/01/12 05:56:20;;;;;;;10.95;1.75;;;;;;;;;;4938503;28;93527;-67
2023/01/12 05:58:57;;;;;;;10.93;1.67;;;;;;;;;;4939036;28;92492;-68
2023/01/12 06:01:24;;;;;;;4.53;1.45;;;;;;;;;;4930331;28;93354;-67
2023/01/12 06:03:51;;;;;;;6.93;1.27;;;;;;;;;;4937911;28;93990;-68
2023/01/12 06:06:18;;;;;;;5.10;1.30;;;;;;;;;;4940170;28;92523;-67
2023/01/12 06:08:44;;;;;;;9.20;1.45;;;;;;;;;;4928717;28;95868;-67
2023/01/12 06:13:55;;;;;;;6.78;1.55;;;;;;;;;;4934143;28;92537;-68
2023/01/12 06:13:58;;;;;;;7.68;2.42;;;;;;;;;;4934655;28;93440;-67
2023/01/12 06:16:25;;;;;;;4.05;1.20;;;;;;;;;;4934731;28;93428;-68
2023/01/12 06:18:52;;;;;;;1.23;0.90;;;;;;;;;;4935071;28;92466;-67
2023/01/12 06:21:18;;;;;;;7.82;1.90;;;;;;;;;;4934182;28;93373;-67
2023/01/12 06:23:44;;;;;;;5.18;1.00;;;;;;;;;;4934511;28;95238;-67
2023/01/12 06:26:11;;;;;;;4.13;1.40;;;;;;;;;;4931002;28;92077;-68
2023/01/12 06:28:38;;;;;;;6.22;1.20;;;;;;;;;;4934312;28;94109;-67
2023/01/12 06:31:05;;;;;;;3.22;0.88;;;;;;;;;;4934183;28;92491;-67
2023/01/12 06:33:32;;;;;;;4.90;1.17;;;;;;;;;;4932392;28;94943;-67
2023/01/12 06:35:58;;;;;;;3.83;1.13;;;;;;;;;;4931179;28;94937;-68
2023/01/12 06:38:26;;;;;;;3.03;1.35;;;;;;;;;;4933159;28;92710;-67
2023/01/12 06:40:52;;;;;;;3.97;1.15;;;;;;;;;;4933291;28;93153;-67
2023/01/12 06:43:18;;;;;;;2.25;1.33;;;;;;;;;;4929630;28;93770;-67
2023/01/12 06:45:45;;;;;;;2.63;0.90;;;;;;;;;;4932564;28;92552;-67
2023/01/12 06:48:11;;;;;;;2.50;1.05;;;;;;;;;;4935090;28;93164;-67
2023/01/12 06:50:37;;;;;;;3.03;1.10;;;;;;;;;;4938012;28;92809;-67
2023/01/12 06:53:05;;;;;;;4.47;1.45;;;;;;;;;;4933595;28;92711;-67
2023/01/12 06:55:32;;;;;;;5.72;1.20;;;;;;;;;;4933205;28;93460;-67
2023/01/12 06:58:02;;;;;;;1.95;0.88;;;;;;;;;;4933263;28;94857;-68
2023/01/12 07:00:29;;;;;;;3.00;1.13;;;;;;;;;;4931232;28;95491;-68
2023/01/12 07:02:55;;;;;;;3.75;1.17;;;;;;;;;;4934161;28;93814;-67
2023/01/12 07:05:22;;;;;;;9.32;1.88;;;;;;;;;;4942537;28;92630;-68
2023/01/12 07:07:48;;;;;;;2.13;1.00;;;;;;;;;;4941536;28;94475;-68
2023/01/12 07:10:14;;;;;;;1.92;1.10;;;;;;;;;;4936926;28;93233;-68
2023/01/12 07:12:41;;;;;;;3.45;1.15;;;;;;;;;;4955022;28;92663;-68
2023/01/12 07:15:07;;;;;;;10.05;1.50;;;;;;;;;;4941775;28;92659;-67
2023/01/12 07:17:34;;;;;;;1.60;1.50;;;;;;;;;;4954838;28;92521;-68
2023/01/12 07:20:00;;;;;;;2.00;1.38;;;;;;;;;;4957850;28;93421;-68
2023/01/12 07:22:26;;;;;;;4.05;1.58;;;;;;;;;;4936832;28;95891;-68
2023/01/12 07:24:53;;;;;;;5.25;1.50;;;;;;;;;;4937942;28;92451;-68
2023/01/12 07:27:22;;;;;;;5.80;1.42;;;;;;;;;;4938073;28;93187;-68
2023/01/12 07:29:48;;;;;;;4.32;1.30;;;;;;;;;;4944979;28;93764;-68
2023/01/12 07:32:14;;;;;;;2.58;1.50;;;;;;;;;;4945223;28;92615;-68
2023/01/12 07:34:40;;;;;;;8.15;1.60;;;;;;;;;;4937786;28;93420;-68
2023/01/12 07:37:07;;;;;;;2.20;1.65;;;;;;;;;;4936718;28;92542;-68
2023/01/12 07:39:34;;;;;;;7.97;1.77;;;;;;;;;;4947861;28;93438;-68
2023/01/12 07:44:45;;;;;;;3.03;1.70;;;;;;;;;;4934715;28;92514;-68
2023/01/12 07:47:11;;;;;;;1.90;1.15;;;;;;;;;;4926649;28;94944;-68
2023/01/12 07:49:37;;;;;;;4.70;2.03;;;;;;;;;;4924832;28;93513;-68
2023/01/12 07:52:04;;;;;;;3.42;1.70;;;;;;;;;;4945590;28;94020;-67
2023/01/12 07:54:32;;;;;;;5.35;2.10;;;;;;;;;;4933123;28;94170;-67
2023/01/12 07:56:58;;;;;;;5.47;1.75;;;;;;;;;;4935543;28;92855;-68
2023/01/12 07:59:26;;;;;;;9.40;2.00;;;;;;;;;;4955497;28;94393;-68
2023/01/12 08:01:53;;;;;;;5.15;1.65;;;;;;;;;;4956938;28;94957;-68
2023/01/12 08:04:20;;;;;;;6.82;1.83;;;;;;;;;;4953323;28;92046;-68
2023/01/12 08:06:47;;;;;;;7.47;1.88;;;;;;;;;;4936658;28;92666;-67
2023/01/12 08:09:13;;;;;;;5.93;2.13;;;;;;;;;;4934831;28;92527;-67
2023/01/12 08:11:39;;;;;;;6.88;2.08;;;;;;;;;;4916797;28;94829;-67
2023/01/12 08:14:06;;;;;;;11.45;2.22;;;;;;;;;;4918320;28;95497;-67
2023/01/12 08:16:34;;;;;;;3.97;2.00;;;;;;;;;;4937615;28;93425;-67
2023/01/12 08:19:21;;;;;;;4.72;1.80;;;;;;;;;;4955136;28;93125;-66
2023/01/12 08:21:49;;;;;;;9.20;2.17;;;;;;;;;;4945923;28;93580;-67
2023/01/12 08:24:17;;;;;;;10.02;2.20;;;;;;;;;;4935702;28;92795;-67
2023/01/12 08:26:44;;;;;;;19.88;2.20;;;;;;;;;;4943666;28;93471;-67
2023/01/12 08:29:19;;;;;;;11.65;1.95;;;;;;;;;;4948088;28;93284;-67
2023/01/12 08:31:46;;;;;;;8.23;1.70;;;;;;;;;;4935673;28;93476;-66
2023/01/12 08:34:12;;;;;;;7.40;1.90;;;;;;;;;;4936741;28;95608;-67
2023/01/12 08:36:39;;;;;;;5.28;1.52;;;;;;;;;;4949069;28;95844;-66
2023/01/12 08:39:07;;;;;;;8.30;2.00;;;;;;;;;;4960551;28;92440;-67
2023/01/12 08:41:34;;;;;;;9.35;1.50;;;;;;;;;;4950139;28;93738;-67
2023/01/12 08:44:00;;;;;;;8.23;1.75;;;;;;;;;;4957194;28;92439;-67
2023/01/12 08:46:33;;;;;;;6.22;1.70;;;;;;;;;;4938467;28;93118;-67
2023/01/12 08:49:00;;;;;;;10.55;2.00;;;;;;;;;;4937216;28;93686;-67
2023/01/12 08:51:26;;;;;;;7.25;1.80;;;;;;;;;;4954167;28;92915;-67
2023/01/12 08:53:52;;;;;;;5.97;1.60;;;;;;;;;;4951549;28;93150;-67
2023/01/12 08:56:19;;;;;;;6.82;1.90;;;;;;;;;;4928924;28;93804;-67
2023/01/12 08:58:45;;;;;;;9.48;2.35;;;;;;;;;;4935852;28;92501;-67
2023/01/12 09:01:13;;;;;;;6.85;2.15;;;;;;;;;;4938188;28;94815;-67
2023/01/12 09:03:39;;;;;;;6.78;1.50;;;;;;;;;;4936537;28;92418;-66
2023/01/12 09:06:10;;;;;;;3.95;1.45;;;;;;;;;;4956255;28;94417;-67
2023/01/12 09:08:36;;;;;;;8.25;1.63;;;;;;;;;;4952747;28;93773;-67
2023/01/12 09:11:04;;;;;;;7.68;1.83;;;;;;;;;;4946913;28;92660;-68
2023/01/12 09:13:33;;;;;;;8.63;1.85;;;;;;;;;;4937605;28;93134;-68
2023/01/12 09:16:06;;;;;;;6.05;1.48;;;;;;;;;;4937795;28;93537;-68
2023/01/12 09:18:38;;;;;;;14.15;2.00;;;;;;;;;;4938444;28;91782;-68
2023/01/12 09:21:06;;;;;;;10.00;1.67;;;;;;;;;;4939944;28;92458;-68
2023/01/12 09:23:32;;;;;;;12.63;1.80;;;;;;;;;;4939848;28;92487;-68
2023/01/12 09:26:03;;;;;;;8.40;1.90;;;;;;;;;;4934138;28;95085;-68
2023/01/12 09:28:30;;;;;;;9.95;2.38;;;;;;;;;;4936403;28;92482;-68
2023/01/12 09:31:05;;;;;;;12.50;1.90;;;;;;;;;;4936446;28;92606;-69
2023/01/12 09:33:31;;;;;;;12.07;2.45;;;;;;;;;;4953353;28;93242;-68
2023/01/12 09:35:58;;;;;;;6.75;1.83;;;;;;;;;;4955240;28;93602;-68
2023/01/12 09:38:25;;;;;;;11.15;2.25;;;;;;;;;;4955737;28;92481;-68
2023/01/12 09:40:51;;;;;;;13.15;2.70;;;;;;;;;;4953153;28;93140;-68
2023/01/12 09:48:47;;;;;;;19.48;3.15;;;;;;;;;;4935816;28;93546;-68
2023/01/12 09:51:26;;;;;;;15.00;2.53;;;;;;;;;;4946385;28;95098;-68
2023/01/12 09:53:53;;;;;;;13.40;3.47;;;;;;;;;;4916448;28;95492;-68
2023/01/12 09:56:19;;;;;;;16.83;2.67;;;;;;;;;;4927435;28;93456;-69
2023/01/12 09:58:57;;;;;;;15.27;2.45;;;;;;;;;;4935570;28;92456;-68
2023/01/12 10:01:24;;;;;;;18.25;3.30;;;;;;;;;;4939876;28;94206;-68
2023/01/12 10:03:56;;;;;;;21.35;3.17;;;;;;;;;;4953527;28;94260;-68
2023/01/12 10:06:22;;;;;;;20.73;3.45;;;;;;;;;;4946773;28;92858;-68
2023/01/12 10:08:51;;;;;;;23.50;4.03;;;;;;;;;;4923908;28;92770;-68
2023/01/12 10:11:27;;;;;;;19.70;2.97;;;;;;;;;;4925749;28;93041;-68
2023/01/12 10:14:12;;;;;;;19.52;3.00;;;;;;;;;;4955175;28;93181;-68
2023/01/12 10:16:56;;;;;;;19.60;3.40;;;;;;;;;;4936648;28;96317;-68
2023/01/12 10:19:41;;;;;;;20.45;3.20;;;;;;;;;;4953705;28;92506;-68
2023/01/12 10:22:38;;;;;;;15.10;2.95;;;;;;;;;;4951424;28;93466;-68
2023/01/12 10:25:17;;;;;;;20.35;3.17;;;;;;;;;;4953008;28;93509;-68
2023/01/12 10:27:44;;;;;;;16.05;3.10;;;;;;;;;;4934192;28;93691;-68
2023/01/12 10:30:12;;;;;;;16.65;2.83;;;;;;;;;;4937421;28;92603;-68
2023/01/12 10:32:39;;;;;;;16.65;3.00;;;;;;;;;;4947462;28;92969;-68
2023/01/12 10:35:11;;;;;;;14.50;3.28;;;;;;;;;;4954344;28;93110;-68
2023/01/12 10:37:45;;;;;;;18.63;3.22;;;;;;;;;;4953263;28;94593;-68
2023/01/12 10:40:20;;;;;;;16.70;2.83;;;;;;;;;;4954697;28;92899;-68
2023/01/12 10:43:22;;;;;;;18.45;3.03;;;;;;;;;;4948689;28;94914;-68
2023/01/12 10:46:07;;;;;;;17.25;2.63;;;;;;;;;;4924430;28;93494;-68
2023/01/12 10:48:34;;;;;;;15.55;2.20;;;;;;;;;;4934032;28;92503;-68
2023/01/12 10:51:02;;;;;;;17.42;3.50;;;;;;;;;;4936593;28;92443;-68
2023/01/12 10:54:00;;;;;;;16.90;2.78;;;;;;;;;;4941227;28;92429;-68
2023/01/12 10:56:27;;;;;;;19.90;2.90;;;;;;;;;;4878676;28;93082;-68
2023/01/12 10:58:56;;;;;;;16.02;2.50;;;;;;;;;;4878581;28;93917;-68
2023/01/12 11:01:22;;;;;;;14.55;2.55;;;;;;;;;;4877052;28;91832;-68
2023/01/12 11:03:49;;;;;;;14.18;2.13;;;;;;;;;;4862831;28;92865;-68
2023/01/12 11:06:23;;;;;;;7.57;1.70;;;;;;;;;;4861426;28;93891;-68
2023/01/12 11:08:50;;;;;;;7.22;1.50;;;;;;;;;;4860888;28;94836;-68
2023/01/12 11:11:31;;;;;;;7.97;1.77;;;;;;;;;;4861910;28;98758;-68
2023/01/12 11:14:02;;;;;;;8.55;2.03;;;;;;;;;;4876460;28;93417;-68
2023/01/12 11:16:32;;;;;;;5.95;1.58;;;;;;;;;;4880488;28;93280;-68
2023/01/12 11:18:58;;;;;;;;;;;;;;;;;;4868591;28;93698;-68
2023/01/12 11:21:29;;;;;;;3.38;1.10;;;;;;;;;;4862901;28;118162;-68
2023/01/12 11:23:55;;;;;;;;;;;;;;;;;;4877852;28;93322;-68
2023/01/12 11:26:31;;;;;;;4.78;0.90;;;;;;;;;;4863354;28;122191;-68
2023/01/12 11:29:01;;;;;;;2.03;0.70;;;;;;;;;;4862358;28;92521;-68
2023/01/12 11:31:34;;;;;;;0.77;0.60;;;;;;;;;;4888432;28;94179;-68
2023/01/12 11:34:09;;;;;;;2.33;0.60;;;;;;;;;;4932623;28;95817;-68
2023/01/12 11:36:42;;;;;;;0.60;0.60;;;;;;;;;;4936757;28;92831;-68
2023/01/12 11:39:11;;;;;;;1.50;0.70;;;;;;;;;;4939303;28;94087;-68
2023/01/12 11:41:42;;;;;;;1.55;0.70;;;;;;;;;;4946387;28;93283;-68
2023/01/12 11:44:19;;;;;;;3.70;0.85;;;;;;;;;;4935896;28;93134;-68
2023/01/12 11:47:05;;;;;;;0.52;0.40;;;;;;;;;;4934499;28;94139;-68
2023/01/12 11:49:58;;;;;;;1.08;0.40;;;;;;;;;;4938119;28;92401;-68
2023/01/12 11:52:25;;;;;;;3.15;0.70;;;;;;;;;;4942317;28;93125;-68
2023/01/12 11:54:52;;;;;;;0.80;0.50;;;;;;;;;;4957557;28;93339;-68
2023/01/12 11:57:21;;;;;;;2.13;0.60;;;;;;;;;;4955935;28;92446;-68
2023/01/12 12:00:02;;;;;;;1.23;0.50;;;;;;;;;;4958663;28;94777;-68
2023/01/12 12:02:32;;;;;;;1.67;0.50;;;;;;;;;;4940675;28;92544;-68
2023/01/12 12:04:59;;;;;;;1.00;0.67;;;;;;;;;;4956385;28;93581;-68
2023/01/12 12:07:45;;;;;;;0.68;0.40;;;;;;;;;;4956618;28;93495;-68
2023/01/12 12:10:20;;;;;;;2.65;0.50;;;;;;;;;;4950739;28;92480;-68
2023/01/12 12:12:46;;;;;;;1.80;0.85;;;;;;;;;;4953870;28;93402;-68
2023/01/12 12:15:31;;;;;;;3.08;0.90;;;;;;;;;;4950396;28;94937;-68
2023/01/12 12:18:00;;;;;;;1.92;0.70;;;;;;;;;;4952219;28;91727;-69
2023/01/12 12:20:29;;;;;;;1.20;0.60;;;;;;;;;;4955801;28;92661;-68
2023/01/12 12:22:59;;;;;;;0.80;0.43;;;;;;;;;;4941354;28;93503;-68
2023/01/12 12:25:31;;;;;;;2.15;0.90;;;;;;;;;;4937613;28;94880;-68
2023/01/12 12:28:03;;;;;;;0.70;0.70;;;;;;;;;;4935177;28;93611;-69
2023/01/12 12:30:42;;;;;;;2.40;0.65;;;;;;;;;;4936617;28;92591;-69
2023/01/12 12:33:27;;;;;;;0.93;0.75;;;;;;;;;;4938773;28;93110;-69
2023/01/12 12:36:13;;;;;;;1.85;0.57;;;;;;;;;;4932571;28;93527;-69
2023/01/12 12:38:57;;;;;;;1.35;0.63;;;;;;;;;;4921112;28;92478;-68
2023/01/12 12:47:08;;;;;;;0.65;0.45;;;;;;;;;;4942798;28;92495;-69
2023/01/12 12:49:36;;;;;;;0.57;0.40;;;;;;;;;;4933709;28;92446;-69
2023/01/12 12:52:03;;;;;;;0.55;0.55;;;;;;;;;;4915906;28;94798;-69
2023/01/12 12:54:30;;;;;;;0.60;0.60;;;;;;;;;;4927534;28;95685;-69
2023/01/12 12:56:57;;;;;;;1.33;0.80;;;;;;;;;;4936651;28;93427;-69
2023/01/12 12:59:32;;;;;;;0.70;0.60;;;;;;;;;;4937132;28;92419;-69
2023/01/12 13:01:59;;;;;;;2.60;0.70;;;;;;;;;;4933694;28;93362;-69
2023/01/12 13:04:41;;;;;;;1.70;0.80;;;;;;;;;;4945030;28;93448;-69
2023/01/12 13:07:12;;;;;;;0.60;0.57;;;;;;;;;;4944190;28;92497;-69
2023/01/12 13:09:39;;;;;;;3.35;1.38;;;;;;;;;;4938728;28;93023;-69
2023/01/12 13:12:05;;;;;;;0.63;0.60;;;;;;;;;;4936990;28;92443;-69
2023/01/12 13:14:38;;;;;;;1.30;0.60;;;;;;;;;;4951558;28;94274;-69
2023/01/12 13:17:25;;;;;;;0.50;0.50;;;;;;;;;;4936613;28;96075;-69
2023/01/12 13:20:01;;;;;;;1.75;0.63;;;;;;;;;;4934900;28;92576;-68
2023/01/12 13:22:38;;;;;;;1.23;0.43;;;;;;;;;;4934230;28;93476;-68
2023/01/12 13:25:21;;;;;;;0.60;0.60;;;;;;;;;;4927321;28;93760;-68
2023/01/12 13:27:54;;;;;;;2.50;0.80;;;;;;;;;;4955676;28;92453;-68
2023/01/12 13:30:21;;;;;;;2.45;0.80;;;;;;;;;;4952001;28;93170;-68
2023/01/12 13:33:05;;;;;;;3.25;0.90;;;;;;;;;;4958729;28;93815;-68
2023/01/12 13:35:32;;;;;;;2.22;0.90;;;;;;;;;;4954770;28;93439;-68
2023/01/12 13:38:13;;;;;;;3.65;1.00;;;;;;;;;;4927426;28;94091;-68
2023/01/12 13:40:39;;;;;;;2.50;1.10;;;;;;;;;;4929517;28;92417;-68
2023/01/12 13:43:32;;;;;;;2.97;1.10;;;;;;;;;;4933271;28;94967;-69
2023/01/12 13:46:00;;;;;;;1.67;1.05;;;;;;;;;;4928878;28;93264;-68
2023/01/12 13:48:28;;;;;;;2.45;0.98;;;;;;;;;;4938239;28;92639;-68
2023/01/12 13:51:02;;;;;;;2.65;1.25;;;;;;;;;;4945673;28;93277;-68
2023/01/12 13:53:29;;;;;;;1.83;0.88;;;;;;;;;;4938893;28;93556;-69
2023/01/12 13:55:55;;;;;;;1.45;0.75;;;;;;;;;;4937947;28;92424;-69
2023/01/12 13:58:21;;;;;;;3.75;1.27;;;;;;;;;;4933362;28;93305;-69
2023/01/12 14:00:52;;;;;;;2.63;1.00;;;;;;;;;;4933958;28;91894;-69
2023/01/12 14:03:39;;;;;;;0.88;0.88;;;;;;;;;;4931248;28;92908;-69
2023/01/12 14:06:28;;;;;;;5.45;0.85;;;;;;;;;;4954353;28;93476;-69
2023/01/12 14:09:13;;;;;;;2.28;1.08;;;;;;;;;;4949452;28;95298;-69
2023/01/12 14:12:06;;;;;;;3.25;1.10;;;;;;;;;;4935460;28;95508;-68
2023/01/12 14:17:56;;;;;;;3.15;1.05;;;;;;;;;;4933201;28;93403;-69
2023/01/12 14:20:27;;;;;;;1.35;0.82;;;;;;;;;;4932765;28;93652;-68
2023/01/12 14:23:13;;;;;;;0.95;0.82;;;;;;;;;;4937003;28;92653;-68
2023/01/12 14:25:39;;;;;;;1.67;1.20;;;;;;;;;;4937137;28;92400;-68
2023/01/12 14:28:19;;;;;;;1.70;1.42;;;;;;;;;;4951912;28;92790;-68
2023/01/12 14:30:50;;;;;;;4.00;1.20;;;;;;;;;;4948108;28;92552;-68
2023/01/12 14:33:19;;;;;;;1.00;1.00;;;;;;;;;;4945502;28;95168;-68
2023/01/12 14:35:46;;;;;;;4.03;1.13;;;;;;;;;;4941277;28;95874;-68
2023/01/12 14:38:14;;;;;;;3.95;1.40;;;;;;;;;;4943930;28;92604;-68
2023/01/12 14:46:23;;;;;;;1.45;1.02;;;;;;;;;;4949733;28;93203;-68
2023/01/12 14:46:49;;;;;;;3.88;0.98;;;;;;;;;;4946549;28;93308;-68
2023/01/12 14:49:19;;;;;;;1.55;1.08;;;;;;;;;;4953625;28;93841;-68
2023/01/12 14:51:53;;;;;;;2.58;1.55;;;;;;;;;;4949369;28;94227;-69
2023/01/12 14:54:24;;;;;;;1.50;1.15;;;;;;;;;;4935125;28;93070;-68
2023/01/12 14:56:58;;;;;;;1.38;1.27;;;;;;;;;;4930085;28;93950;-69
2023/01/12 14:59:29;;;;;;;4.78;1.60;;;;;;;;;;4930887;28;92769;-69
2023/01/12 15:02:13;;;;;;;1.67;1.20;;;;;;;;;;4935685;28;94955;-68
2023/01/12 15:04:52;;;;;;;2.40;1.10;;;;;;;;;;4949023;28;96598;-68
2023/01/12 15:07:19;;;;;;;1.42;1.30;;;;;;;;;;4934755;28;93341;-68
2023/01/12 15:09:59;;;;;;;3.65;1.35;;;;;;;;;;4939426;28;93308;-68
2023/01/12 15:12:28;;;;;;;1.77;1.25;;;;;;;;;;4944485;28;92568;-69
2023/01/12 15:15:12;;;;;;;9.95;1.33;;;;;;;;;;4944164;28;93152;-68
2023/01/12 15:25:54;;;;;;;0.90;0.90;;;;;;;;;;4941810;28;94098;-68
2023/01/12 15:28:21;;;;;;;3.30;1.05;;;;;;;;;;4927589;28;95008;-68
2023/01/12 15:30:47;;;;;;;2.15;1.05;;;;;;;;;;4923016;28;94575;-68
2023/01/12 15:33:15;;;;;;;1.20;1.10;;;;;;;;;;4936849;28;92533;-68
2023/01/12 15:35:47;;;;;;;2.63;1.27;;;;;;;;;;4931506;28;93321;-68
2023/01/12 15:38:17;;;;;;;3.08;1.20;;;;;;;;;;4927437;28;92441;-68
2023/01/12 15:40:46;;;;;;;1.13;1.00;;;;;;;;;;4924526;28;92437;-68
2023/01/12 15:43:14;;;;;;;1.88;1.10;;;;;;;;;;4937011;28;94219;-68